createdAt,value
2019-03-29T00:01:05.492Z,8.41
2019-03-29T00:03:36.296Z,8.41
2019-03-29T00:06:07.133Z,8.49
2019-03-29T00:08:37.544Z,8.57
2019-03-29T00:11:08.043Z,8.67
2019-03-29T00:13:38.497Z,8.70
2019-03-29T00:16:08.941Z,8.65
2019-03-29T00:18:39.460Z,8.55
2019-03-29T00:21:09.945Z,8.48
2019-03-29T00:23:42.492Z,8.44
2019-03-29T00:26:13.018Z,8.41
2019-03-29T00:28:43.583Z,8.42
2019-03-29T00:31:14.191Z,8.38
2019-03-29T00:33:44.565Z,8.29
2019-03-29T00:36:15.194Z,8.26
2019-03-29T00:38:45.920Z,8.25
2019-03-29T00:41:16.681Z,8.26
2019-03-29T00:43:47.296Z,8.31
2019-03-29T00:46:18.191Z,8.28
2019-03-29T00:48:48.744Z,8.21
2019-03-29T00:51:19.515Z,8.13
2019-03-29T00:53:51.232Z,8.14
2019-03-29T00:56:21.707Z,8.18
2019-03-29T00:58:53.747Z,8.18
2019-03-29T01:01:26.051Z,8.24
2019-03-29T01:03:57.796Z,8.18
2019-03-29T01:06:29.960Z,8.12
2019-03-29T01:09:00.811Z,8.05
2019-03-29T01:11:33.509Z,8.00
2019-03-29T01:14:04.333Z,7.96
2019-03-29T01:16:36.052Z,7.96
2019-03-29T01:19:06.773Z,8.03
2019-03-29T01:21:37.755Z,8.07
2019-03-29T01:24:08.198Z,8.05
2019-03-29T01:26:38.703Z,8.04
2019-03-29T01:29:09.179Z,8.03
2019-03-29T01:31:40.228Z,8.02
2019-03-29T01:34:11.475Z,7.99
2019-03-29T01:36:41.810Z,8.01
2019-03-29T01:39:12.612Z,8.02
2019-03-29T01:41:43.526Z,8.00
2019-03-29T01:44:15.387Z,7.95
2019-03-29T01:46:45.925Z,7.99
2019-03-29T01:49:16.450Z,8.05
2019-03-29T01:51:46.967Z,8.12
2019-03-29T01:54:17.804Z,8.21
2019-03-29T01:56:48.243Z,8.24
2019-03-29T01:59:18.766Z,8.29
2019-03-29T02:01:49.228Z,8.35
2019-03-29T02:04:20.318Z,8.38
2019-03-29T02:06:51.202Z,8.43
2019-03-29T02:09:22.696Z,8.44
2019-03-29T02:11:53.430Z,8.45
2019-03-29T02:14:23.894Z,8.45
2019-03-29T02:16:55.844Z,8.43
2019-03-29T02:19:26.624Z,8.39
2019-03-29T02:21:57.318Z,8.32
2019-03-29T02:24:27.891Z,8.19
2019-03-29T02:26:58.285Z,8.12
2019-03-29T02:29:29.099Z,8.13
2019-03-29T02:32:00.626Z,8.16
2019-03-29T02:34:31.150Z,8.13
2019-03-29T02:37:02.305Z,8.15
2019-03-29T02:39:33.083Z,8.18
2019-03-29T02:42:03.594Z,8.17
2019-03-29T02:44:35.021Z,8.16
2019-03-29T02:47:06.877Z,8.12
2019-03-29T02:49:37.474Z,8.08
2019-03-29T02:52:07.935Z,8.03
2019-03-29T02:54:38.530Z,7.91
2019-03-29T02:57:09.344Z,7.83
2019-03-29T02:59:39.874Z,7.81
2019-03-29T03:02:10.374Z,7.83
2019-03-29T03:04:40.866Z,7.86
2019-03-29T03:07:11.401Z,7.80
2019-03-29T03:09:42.343Z,7.72
2019-03-29T03:12:12.941Z,7.67
2019-03-29T03:14:43.459Z,7.67
2019-03-29T03:17:13.961Z,7.68
2019-03-29T03:19:44.681Z,7.72
2019-03-29T03:22:15.108Z,7.75
2019-03-29T03:24:45.658Z,7.75
2019-03-29T03:27:16.170Z,7.72
2019-03-29T03:29:48.488Z,7.67
2019-03-29T03:32:19.084Z,7.58
2019-03-29T03:34:50.001Z,7.47
2019-03-29T03:37:20.636Z,7.37
2019-03-29T03:39:51.176Z,7.33
2019-03-29T03:42:22.423Z,7.27
2019-03-29T03:44:54.018Z,7.26
2019-03-29T03:47:24.475Z,7.24
2019-03-29T03:49:55.063Z,7.20
2019-03-29T03:52:25.733Z,7.17
2019-03-29T03:54:56.706Z,7.21
2019-03-29T03:57:27.761Z,7.28
2019-03-29T04:00:00.031Z,7.35
2019-03-29T04:02:30.577Z,7.40
2019-03-29T04:05:00.989Z,7.45
2019-03-29T04:07:31.551Z,7.46
2019-03-29T04:10:02.115Z,7.41
2019-03-29T04:12:32.789Z,7.33
2019-03-29T04:15:03.325Z,7.32
2019-03-29T04:17:33.942Z,7.33
2019-03-29T04:20:04.766Z,7.39
2019-03-29T04:22:35.367Z,7.39
2019-03-29T04:25:06.580Z,7.33
2019-03-29T04:27:37.432Z,7.29
2019-03-29T04:30:08.144Z,7.30
2019-03-29T04:32:39.469Z,7.33
2019-03-29T04:35:10.172Z,7.29
2019-03-29T04:37:40.615Z,7.16
2019-03-29T04:40:11.473Z,7.13
2019-03-29T04:42:41.869Z,7.11
2019-03-29T04:45:12.442Z,7.17
2019-03-29T04:47:42.918Z,7.23
2019-03-29T04:50:14.197Z,7.28
2019-03-29T04:52:44.706Z,7.34
2019-03-29T04:55:15.368Z,7.39
2019-03-29T04:57:45.955Z,7.43
2019-03-29T05:00:17.701Z,7.46
2019-03-29T05:02:48.700Z,7.48
2019-03-29T05:05:19.628Z,7.49
2019-03-29T05:07:50.418Z,7.47
2019-03-29T05:10:22.022Z,7.47
2019-03-29T05:12:52.649Z,7.46
2019-03-29T05:15:23.215Z,7.47
2019-03-29T05:17:54.441Z,7.49
2019-03-29T05:20:25.368Z,7.52
2019-03-29T05:22:56.475Z,7.53
2019-03-29T05:25:27.086Z,7.55
2019-03-29T05:27:57.860Z,7.55
2019-03-29T05:30:28.573Z,7.57
2019-03-29T05:32:59.090Z,7.58
2019-03-29T05:35:29.630Z,7.60
2019-03-29T05:38:00.443Z,7.59
2019-03-29T05:40:35.078Z,7.61
2019-03-29T05:43:03.593Z,7.62
2019-03-29T05:45:34.100Z,7.65
2019-03-29T05:48:04.617Z,7.67
2019-03-29T05:50:36.820Z,7.67
2019-03-29T05:53:07.576Z,7.70
2019-03-29T05:55:38.109Z,7.72
2019-03-29T05:58:08.844Z,7.73
2019-03-29T06:00:39.645Z,7.75
2019-03-29T06:03:10.450Z,7.74
2019-03-29T06:05:41.689Z,7.78
2019-03-29T06:08:12.156Z,7.80
2019-03-29T06:10:48.799Z,7.83
2019-03-29T06:13:15.166Z,7.84
2019-03-29T06:15:45.669Z,7.86
2019-03-29T06:18:16.623Z,7.88
2019-03-29T06:20:48.037Z,7.90
2019-03-29T06:23:18.801Z,7.90
2019-03-29T06:25:49.812Z,7.89
2019-03-29T06:28:20.650Z,7.89
2019-03-29T06:30:51.186Z,7.89
2019-03-29T06:33:21.591Z,7.89
2019-03-29T06:35:54.083Z,7.90
2019-03-29T06:38:26.460Z,7.89
2019-03-29T06:41:02.931Z,7.87
2019-03-29T06:43:29.183Z,7.87
2019-03-29T06:45:59.926Z,7.88
2019-03-29T06:48:30.425Z,7.88
2019-03-29T06:51:01.241Z,7.90
2019-03-29T06:53:31.636Z,7.95
2019-03-29T06:56:02.134Z,8.00
2019-03-29T06:58:32.940Z,8.04
2019-03-29T07:01:03.401Z,8.06
2019-03-29T07:03:33.878Z,8.10
2019-03-29T07:06:04.401Z,8.13
2019-03-29T07:08:35.284Z,8.18
2019-03-29T07:11:16.511Z,8.20
2019-03-29T07:13:38.217Z,8.26
2019-03-29T07:16:08.761Z,8.35
2019-03-29T07:18:39.271Z,8.42
2019-03-29T07:21:20.879Z,8.50
2019-03-29T07:23:42.913Z,8.58
2019-03-29T07:26:13.428Z,8.67
2019-03-29T07:28:44.099Z,8.75
2019-03-29T07:31:14.622Z,8.83
2019-03-29T07:33:45.114Z,8.88
2019-03-29T07:36:15.741Z,8.94
2019-03-29T07:38:46.250Z,9.02
2019-03-29T07:41:30.745Z,9.10
2019-03-29T07:43:48.916Z,9.16
2019-03-29T07:46:19.584Z,9.22
2019-03-29T07:48:50.743Z,9.29
2019-03-29T07:51:21.264Z,9.35
2019-03-29T07:53:51.688Z,9.41
2019-03-29T07:56:22.202Z,9.47
2019-03-29T07:58:52.629Z,9.51
2019-03-29T08:01:23.151Z,9.57
2019-03-29T08:03:53.601Z,9.63
2019-03-29T08:06:24.552Z,9.68
2019-03-29T08:08:55.063Z,9.75
2019-03-29T08:11:27.643Z,9.80
2019-03-29T08:13:58.930Z,9.84
2019-03-29T08:16:29.522Z,9.87
2019-03-29T08:19:00.312Z,9.92
2019-03-29T08:21:31.080Z,9.95
2019-03-29T08:24:01.578Z,10.00
2019-03-29T08:26:32.548Z,10.06
2019-03-29T08:29:03.231Z,10.10
2019-03-29T08:31:33.736Z,10.14
2019-03-29T08:34:04.569Z,10.20
2019-03-29T08:36:35.389Z,10.23
2019-03-29T08:39:10.110Z,10.28
2019-03-29T08:41:39.280Z,10.31
2019-03-29T08:44:11.853Z,10.36
2019-03-29T08:46:43.393Z,10.41
2019-03-29T08:49:16.841Z,10.47
2019-03-29T08:51:47.009Z,10.53
2019-03-29T08:54:17.492Z,10.57
2019-03-29T08:56:47.978Z,10.63
2019-03-29T08:59:18.434Z,10.67
2019-03-29T09:01:50.119Z,10.71
2019-03-29T09:04:21.827Z,10.74
2019-03-29T09:06:54.143Z,10.77
2019-03-29T09:09:24.842Z,10.82
2019-03-29T09:11:55.407Z,10.86
2019-03-29T09:14:26.191Z,10.90
2019-03-29T09:16:56.636Z,10.96
2019-03-29T09:19:28.721Z,11.00
2019-03-29T09:21:59.243Z,11.05
2019-03-29T09:24:29.648Z,11.09
2019-03-29T09:27:00.501Z,11.13
2019-03-29T09:29:31.019Z,11.19
2019-03-29T09:32:01.835Z,11.23
2019-03-29T09:34:33.344Z,11.28
2019-03-29T09:37:03.943Z,11.35
2019-03-29T09:39:34.461Z,11.39
2019-03-29T09:42:04.974Z,11.42
2019-03-29T09:44:35.800Z,11.46
2019-03-29T09:47:06.627Z,11.52
2019-03-29T09:49:37.108Z,11.59
2019-03-29T09:52:08.105Z,11.66
2019-03-29T09:54:39.361Z,11.72
2019-03-29T09:57:14.893Z,11.77
2019-03-29T09:59:42.220Z,11.86
2019-03-29T10:02:12.754Z,11.95
2019-03-29T10:04:43.265Z,12.01
2019-03-29T10:07:13.741Z,12.07
2019-03-29T10:09:44.340Z,12.14
2019-03-29T10:12:14.923Z,12.21
2019-03-29T10:14:45.846Z,12.27
2019-03-29T10:17:16.390Z,12.41
2019-03-29T10:19:49.692Z,12.56
2019-03-29T10:22:19.464Z,12.77
2019-03-29T10:24:49.817Z,12.93
2019-03-29T10:27:20.807Z,13.16
2019-03-29T10:29:51.560Z,13.34
2019-03-29T10:32:22.156Z,13.52
2019-03-29T10:34:52.642Z,13.69
2019-03-29T10:37:23.326Z,13.82
2019-03-29T10:39:54.210Z,13.96
2019-03-29T10:42:24.926Z,14.14
2019-03-29T10:44:56.004Z,14.27
2019-03-29T10:47:42.359Z,14.41
2019-03-29T10:49:59.477Z,14.55
2019-03-29T10:52:30.268Z,14.68
2019-03-29T10:55:02.062Z,14.83
2019-03-29T10:57:32.548Z,14.99
2019-03-29T11:00:03.417Z,15.14
2019-03-29T11:02:34.550Z,15.27
2019-03-29T11:05:05.343Z,15.38
2019-03-29T11:07:36.462Z,15.51
2019-03-29T11:10:07.078Z,15.63
2019-03-29T11:12:37.623Z,15.73
2019-03-29T11:15:08.454Z,15.75
2019-03-29T11:17:38.985Z,15.85
2019-03-29T11:20:09.522Z,16.00
2019-03-29T11:22:39.985Z,16.07
2019-03-29T11:25:10.563Z,16.13
2019-03-29T11:27:41.068Z,16.27
2019-03-29T11:30:11.651Z,16.42
2019-03-29T11:32:42.063Z,16.48
2019-03-29T11:35:12.548Z,16.49
2019-03-29T11:37:43.079Z,16.65
2019-03-29T11:40:13.853Z,16.86
2019-03-29T11:42:44.795Z,17.07
2019-03-29T11:45:15.354Z,17.26
2019-03-29T11:47:46.248Z,17.32
2019-03-29T11:50:17.115Z,17.42
2019-03-29T11:52:48.919Z,17.45
2019-03-29T11:55:19.516Z,17.52
2019-03-29T11:57:50.035Z,17.56
2019-03-29T12:00:33.998Z,17.66
2019-03-29T12:03:09.374Z,17.93
2019-03-29T12:05:40.624Z,18.35
2019-03-29T12:08:11.116Z,18.61
2019-03-29T12:10:42.009Z,18.77
2019-03-29T12:13:13.048Z,18.91
2019-03-29T12:15:43.666Z,19.01
2019-03-29T12:18:14.674Z,19.17
2019-03-29T12:20:46.396Z,19.29
2019-03-29T12:23:17.291Z,19.41
2019-03-29T12:25:47.844Z,19.60
2019-03-29T12:28:18.425Z,19.77
2019-03-29T12:30:48.912Z,19.81
2019-03-29T12:33:19.828Z,19.83
2019-03-29T12:35:50.291Z,19.88
2019-03-29T12:38:21.019Z,19.98
2019-03-29T12:40:51.926Z,20.20
2019-03-29T12:43:22.480Z,20.54
2019-03-29T12:45:53.095Z,20.54
2019-03-29T12:48:25.698Z,20.62
2019-03-29T12:50:57.822Z,21.05
2019-03-29T12:53:28.319Z,21.05
2019-03-29T12:55:58.987Z,21.26
2019-03-29T12:58:30.299Z,21.39
2019-03-29T13:01:01.269Z,21.61
2019-03-29T13:03:32.021Z,21.78
2019-03-29T13:06:02.578Z,22.00
2019-03-29T13:08:33.044Z,22.21
2019-03-29T13:11:05.010Z,22.31
2019-03-29T13:13:35.642Z,22.49
2019-03-29T13:16:06.338Z,22.74
2019-03-29T13:18:38.019Z,22.95
2019-03-29T13:21:08.879Z,23.18
2019-03-29T13:23:41.271Z,23.26
2019-03-29T13:26:11.694Z,23.36
2019-03-29T13:28:42.232Z,23.53
2019-03-29T13:31:14.247Z,23.66
2019-03-29T13:33:44.887Z,23.84
2019-03-29T13:36:15.480Z,23.99
2019-03-29T13:38:47.703Z,24.18
2019-03-29T13:41:18.151Z,24.37
2019-03-29T13:43:49.093Z,24.56
2019-03-29T13:46:19.638Z,24.68
2019-03-29T13:48:50.155Z,24.81
2019-03-29T13:51:20.865Z,24.91
2019-03-29T13:53:51.336Z,24.94
2019-03-29T13:56:22.485Z,24.79
2019-03-29T13:58:52.933Z,24.81
2019-03-29T14:01:23.808Z,25.02
2019-03-29T14:03:54.248Z,25.00
2019-03-29T14:06:24.830Z,25.10
2019-03-29T14:08:55.446Z,25.14
2019-03-29T14:11:26.432Z,24.99
2019-03-29T14:13:57.046Z,24.77
2019-03-29T14:16:27.565Z,24.54
2019-03-29T14:18:58.065Z,24.13
2019-03-29T14:21:28.603Z,23.69
2019-03-29T14:23:59.086Z,23.30
2019-03-29T14:26:29.824Z,22.98
2019-03-29T14:29:00.697Z,22.71
2019-03-29T14:31:31.101Z,22.39
2019-03-29T14:34:01.971Z,22.13
2019-03-29T14:36:32.444Z,21.96
2019-03-29T14:39:02.950Z,21.80
2019-03-29T14:41:34.221Z,21.67
2019-03-29T14:44:04.646Z,21.61
2019-03-29T14:46:35.387Z,21.50
2019-03-29T14:49:05.890Z,21.39
2019-03-29T14:51:36.760Z,21.39
2019-03-29T14:54:07.228Z,21.30
2019-03-29T14:56:38.018Z,21.31
2019-03-29T14:59:08.635Z,21.33
2019-03-29T15:01:39.027Z,21.46
2019-03-29T15:04:09.424Z,21.58
2019-03-29T15:06:40.169Z,21.74
2019-03-29T15:09:10.682Z,21.77
2019-03-29T15:11:41.126Z,21.72
2019-03-29T15:14:11.603Z,21.68
2019-03-29T15:16:42.332Z,21.61
2019-03-29T15:19:12.734Z,21.57
2019-03-29T15:21:43.222Z,21.55
2019-03-29T15:24:13.738Z,21.70
2019-03-29T15:26:44.226Z,21.92
2019-03-29T15:29:14.563Z,22.19
2019-03-29T15:31:45.035Z,22.39
2019-03-29T15:34:15.435Z,22.41
2019-03-29T15:36:45.948Z,22.25
2019-03-29T15:39:16.588Z,22.07
2019-03-29T15:41:47.123Z,21.97
2019-03-29T15:44:18.700Z,21.92
2019-03-29T15:46:49.205Z,21.93
2019-03-29T15:49:19.697Z,21.95
2019-03-29T15:51:50.104Z,21.89
2019-03-29T15:54:20.579Z,21.85
2019-03-29T15:56:50.967Z,21.90
2019-03-29T15:59:21.340Z,21.95
2019-03-29T16:01:51.849Z,22.15
2019-03-29T16:04:22.240Z,22.41
2019-03-29T16:06:52.712Z,22.56
2019-03-29T16:09:23.112Z,22.67
2019-03-29T16:11:53.782Z,22.71
2019-03-29T16:14:24.178Z,22.71
2019-03-29T16:16:54.642Z,22.49
2019-03-29T16:19:25.111Z,22.33
2019-03-29T16:21:55.420Z,22.32
2019-03-29T16:24:27.232Z,22.30
2019-03-29T16:26:57.963Z,22.39
2019-03-29T16:29:28.301Z,22.43
2019-03-29T16:31:58.677Z,22.30
2019-03-29T16:34:29.157Z,22.24
2019-03-29T16:36:59.544Z,22.23
2019-03-29T16:39:30.327Z,22.09
2019-03-29T16:42:00.734Z,22.02
2019-03-29T16:44:31.484Z,21.91
2019-03-29T16:47:01.978Z,21.81
2019-03-29T16:49:33.134Z,21.83
2019-03-29T16:52:03.867Z,21.85
2019-03-29T16:54:34.897Z,21.91
2019-03-29T16:57:05.843Z,21.97
2019-03-29T16:59:36.226Z,21.93
2019-03-29T17:02:06.883Z,21.82
2019-03-29T17:04:37.756Z,21.64
2019-03-29T17:07:08.318Z,21.39
2019-03-29T17:09:39.132Z,21.12
2019-03-29T17:12:09.841Z,20.84
2019-03-29T17:14:40.506Z,20.58
2019-03-29T17:17:10.814Z,20.33
2019-03-29T17:19:41.430Z,20.11
2019-03-29T17:22:12.160Z,19.89
2019-03-29T17:24:56.366Z,19.74
2019-03-29T17:27:15.312Z,19.45
2019-03-29T17:29:46.105Z,19.45
2019-03-29T17:32:16.921Z,19.33
2019-03-29T17:34:47.713Z,19.22
2019-03-29T17:37:18.226Z,19.00
2019-03-29T17:39:49.096Z,18.94
2019-03-29T17:42:19.468Z,18.83
2019-03-29T17:44:49.866Z,18.70
2019-03-29T17:47:20.236Z,18.64
2019-03-29T17:49:50.840Z,18.56
2019-03-29T17:52:21.166Z,18.46
2019-03-29T17:54:51.659Z,18.37
2019-03-29T17:57:22.045Z,18.25
2019-03-29T17:59:52.455Z,17.98
2019-03-29T18:02:23.006Z,17.98
2019-03-29T18:04:54.015Z,17.93
2019-03-29T18:07:24.598Z,17.84
2019-03-29T18:09:55.074Z,17.75
2019-03-29T18:12:25.467Z,17.66
2019-03-29T18:14:55.804Z,17.53
2019-03-29T18:17:26.456Z,17.42
2019-03-29T18:19:57.083Z,17.34
2019-03-29T18:22:28.437Z,17.25
2019-03-29T18:24:58.906Z,17.13
2019-03-29T18:27:30.548Z,17.08
2019-03-29T18:30:01.348Z,16.99
2019-03-29T18:32:33.012Z,16.90
2019-03-29T18:35:03.492Z,16.80
2019-03-29T18:37:34.896Z,16.68
2019-03-29T18:40:05.998Z,16.60
2019-03-29T18:42:36.454Z,16.56
2019-03-29T18:45:07.509Z,16.51
2019-03-29T18:47:37.939Z,16.50
2019-03-29T18:50:08.596Z,16.55
2019-03-29T18:52:38.966Z,16.58
2019-03-29T18:55:09.444Z,16.55
2019-03-29T18:57:39.842Z,16.54
2019-03-29T19:00:10.648Z,16.56
2019-03-29T19:02:41.113Z,16.60
2019-03-29T19:05:18.708Z,16.60
2019-03-29T19:07:49.100Z,16.59
2019-03-29T19:10:19.582Z,16.57
2019-03-29T19:12:50.375Z,16.52
2019-03-29T19:15:22.190Z,16.48
2019-03-29T19:17:52.863Z,16.41
2019-03-29T19:20:27.907Z,16.32
2019-03-29T19:22:55.524Z,16.26
2019-03-29T19:25:25.993Z,16.22
2019-03-29T19:27:56.633Z,16.16
2019-03-29T19:30:27.198Z,16.11
2019-03-29T19:32:57.589Z,16.05
2019-03-29T19:35:28.415Z,16.01
2019-03-29T19:37:58.790Z,15.95
2019-03-29T19:40:29.189Z,15.90
2019-03-29T19:42:59.647Z,15.83
2019-03-29T19:45:34.037Z,15.79
2019-03-29T19:48:02.803Z,15.75
2019-03-29T19:50:33.295Z,15.72
2019-03-29T19:53:03.926Z,15.65
2019-03-29T19:55:35.042Z,15.57
2019-03-29T19:58:05.873Z,15.52
2019-03-29T20:00:41.234Z,15.47
2019-03-29T20:03:11.676Z,15.39
2019-03-29T20:05:42.146Z,15.31
2019-03-29T20:08:12.865Z,15.25
2019-03-29T20:10:43.248Z,15.16
2019-03-29T20:13:13.723Z,15.12
2019-03-29T20:15:44.185Z,15.09
2019-03-29T20:18:14.969Z,15.05
2019-03-29T20:20:45.429Z,14.98
2019-03-29T20:23:16.143Z,14.96
2019-03-29T20:25:46.872Z,14.93
2019-03-29T20:28:17.755Z,14.87
2019-03-29T20:30:48.246Z,14.80
2019-03-29T20:33:18.641Z,14.75
2019-03-29T20:35:49.502Z,14.70
2019-03-29T20:38:20.130Z,14.62
2019-03-29T20:40:50.549Z,14.55
2019-03-29T20:43:21.291Z,14.49
2019-03-29T20:45:52.038Z,14.42
2019-03-29T20:48:22.503Z,14.33
2019-03-29T20:50:53.006Z,14.29
2019-03-29T20:53:23.688Z,14.22
2019-03-29T20:55:54.294Z,14.20
2019-03-29T20:58:24.755Z,14.16
2019-03-29T21:00:55.295Z,14.14
2019-03-29T21:03:25.844Z,14.07
2019-03-29T21:05:56.688Z,14.02
2019-03-29T21:08:27.079Z,13.97
2019-03-29T21:10:57.602Z,13.92
2019-03-29T21:13:28.282Z,13.87
2019-03-29T21:15:58.730Z,13.80
2019-03-29T21:18:29.198Z,13.71
2019-03-29T21:20:59.943Z,13.66
2019-03-29T21:23:31.296Z,13.60
2019-03-29T21:26:01.788Z,13.58
2019-03-29T21:28:34.893Z,13.52
2019-03-29T21:31:04.339Z,13.45
2019-03-29T21:33:34.810Z,13.41
2019-03-29T21:36:05.413Z,13.32
2019-03-29T21:38:35.821Z,13.31
2019-03-29T21:41:06.593Z,13.28
2019-03-29T21:43:37.357Z,13.26
2019-03-29T21:46:07.822Z,13.23
2019-03-29T21:48:38.124Z,13.17
2019-03-29T21:51:08.502Z,13.17
2019-03-29T21:53:38.894Z,13.17
2019-03-29T21:56:09.844Z,13.16
2019-03-29T21:58:40.336Z,13.15
2019-03-29T22:01:10.902Z,13.12
2019-03-29T22:03:41.360Z,13.11
2019-03-29T22:06:11.833Z,13.13
2019-03-29T22:08:42.209Z,13.14
2019-03-29T22:11:12.623Z,13.15
2019-03-29T22:13:43.496Z,13.15
2019-03-29T22:16:14.350Z,13.11
2019-03-29T22:18:44.811Z,12.99
2019-03-29T22:21:15.282Z,12.88
2019-03-29T22:23:45.659Z,12.79
2019-03-29T22:26:16.051Z,12.76
2019-03-29T22:28:46.422Z,12.78
2019-03-29T22:31:16.952Z,12.82
2019-03-29T22:33:47.611Z,12.83
2019-03-29T22:36:18.113Z,12.83
2019-03-29T22:38:48.792Z,12.83
2019-03-29T22:41:19.185Z,12.82
2019-03-29T22:43:49.692Z,12.84
2019-03-29T22:46:20.104Z,12.84
2019-03-29T22:48:52.933Z,12.83
2019-03-29T22:51:22.812Z,12.72
2019-03-29T22:53:53.587Z,12.62
2019-03-29T22:56:24.743Z,12.59
2019-03-29T22:58:55.213Z,12.59
2019-03-29T23:01:26.509Z,12.59
2019-03-29T23:03:56.967Z,12.61
2019-03-29T23:06:27.400Z,12.60
2019-03-29T23:08:57.782Z,12.56
2019-03-29T23:11:28.433Z,12.47
2019-03-29T23:13:58.901Z,12.33
2019-03-29T23:16:30.449Z,12.16
2019-03-29T23:19:06.899Z,12.04
2019-03-29T23:21:33.513Z,12.02
2019-03-29T23:24:03.998Z,12.00
2019-03-29T23:26:34.393Z,11.94
2019-03-29T23:29:05.201Z,11.95
2019-03-29T23:31:35.839Z,11.95
2019-03-29T23:34:06.288Z,11.96
2019-03-29T23:36:36.824Z,12.00
2019-03-29T23:39:07.565Z,11.98
2019-03-29T23:41:38.259Z,12.00
2019-03-29T23:44:08.741Z,11.95
2019-03-29T23:46:39.413Z,11.81
2019-03-29T23:49:21.081Z,11.66
2019-03-29T23:51:42.531Z,11.66
2019-03-29T23:54:13.266Z,11.67
2019-03-29T23:56:43.728Z,11.69
2019-03-29T23:59:14.169Z,11.68
